NY39 weather

Virgil Excavation Heliport
Rochester, New York, United States

Public forecast

Using degrees Fahrenheit for public forecast. Weather courtesy of forecast.io.

Closest aviation weather report (METAR) to Virgil Excavation Heliport

Closest report is Greater Rochester International Airport, 2.8 nm (5.1 km) ESE. Retrieved 2019/12/07 20:54 UTC (35 minutes ago):

KROC 072054Z 34003KT 10SM BKN036 M02/M07 A3043 RMK AO2 SLP316 T10221072 53008

Closest aviation forecast (TAF) to Virgil Excavation Heliport

Closest forecast is Greater Rochester International Airport, 2.8 nm (5.1 km) ESE. Retrieved 2019/12/07 18:36 UTC (3 hours ago):

TAF KROC 071733Z 0718/0818 30007KT P6SM BKN040 FM072100 27005KT P6SM SCT040 FM081000 18008KT P6SM SCT200 FM081500 19014G22KT P6SM BKN200